createdAt,value
2022-10-20T00:04:29.624Z,2.40
2022-10-20T00:09:34.480Z,2.40
2022-10-20T00:14:36.393Z,2.80
2022-10-20T00:19:38.339Z,2.58
2022-10-20T00:24:40.411Z,2.58
2022-10-20T00:29:42.391Z,3.03
2022-10-20T00:34:44.256Z,3.03
2022-10-20T00:39:46.103Z,2.50
2022-10-20T00:44:59.839Z,2.85
2022-10-20T00:50:18.562Z,2.45
2022-10-20T00:55:25.970Z,3.13
2022-10-20T01:00:29.200Z,3.55
2022-10-20T01:05:31.048Z,3.33
2022-10-20T01:10:42.027Z,3.22
2022-10-20T01:16:09.475Z,2.90
2022-10-20T01:26:30.330Z,3.17
2022-10-20T01:31:44.758Z,2.83
2022-10-20T01:37:00.774Z,2.38
2022-10-20T01:42:09.757Z,3.50
2022-10-20T01:47:13.948Z,2.63
2022-10-20T01:52:16.066Z,2.90
2022-10-20T01:57:38.898Z,2.90
2022-10-20T02:02:59.073Z,2.75
2022-10-20T02:08:13.746Z,2.72
2022-10-20T02:13:28.067Z,2.40
2022-10-20T02:18:39.986Z,2.78
2022-10-20T02:23:46.324Z,2.83
2022-10-20T02:29:00.855Z,3.10
2022-10-20T02:34:03.552Z,2.78
2022-10-20T02:39:05.438Z,3.45
2022-10-20T02:44:07.253Z,3.78
2022-10-20T02:49:09.397Z,2.55
2022-10-20T02:54:13.590Z,3.10
2022-10-20T02:59:16.997Z,4.07
2022-10-20T03:04:27.053Z,3.50
2022-10-20T03:09:29.103Z,4.10
2022-10-20T03:14:31.321Z,3.90
2022-10-20T03:19:35.633Z,3.33
2022-10-20T03:24:37.433Z,3.72
2022-10-20T03:29:39.194Z,4.13
2022-10-20T03:34:40.895Z,3.25
2022-10-20T03:39:42.674Z,3.70
2022-10-20T03:44:45.268Z,3.90
2022-10-20T03:49:47.046Z,3.35
2022-10-20T03:54:48.930Z,3.75
2022-10-20T03:59:50.675Z,5.65
2022-10-20T04:04:52.676Z,4.10
2022-10-20T04:09:57.602Z,4.10
2022-10-20T04:14:59.419Z,4.07
2022-10-20T04:20:01.218Z,4.05
2022-10-20T04:25:04.409Z,4.70
2022-10-20T04:30:07.106Z,5.07
2022-10-20T04:35:09.441Z,4.63
2022-10-20T04:40:11.662Z,4.90
2022-10-20T04:45:13.467Z,6.57
2022-10-20T04:50:15.280Z,4.90
2022-10-20T04:55:17.298Z,5.80
2022-10-20T05:00:19.026Z,5.22
2022-10-20T05:05:21.129Z,4.05
2022-10-20T05:10:22.937Z,4.70
2022-10-20T05:15:24.687Z,5.47
2022-10-20T05:20:26.376Z,4.57
2022-10-20T05:25:36.626Z,3.83
2022-10-20T05:30:38.708Z,3.50
2022-10-20T05:35:40.421Z,4.70
2022-10-20T05:40:42.193Z,3.80
2022-10-20T05:45:43.876Z,3.85
2022-10-20T05:55:47.160Z,2.53
2022-10-20T06:00:52.857Z,3.83
2022-10-20T06:05:59.151Z,4.13
2022-10-20T06:11:06.461Z,4.40
2022-10-20T06:16:13.179Z,3.40
2022-10-20T06:21:28.629Z,3.88
2022-10-20T06:26:36.720Z,3.92
2022-10-20T06:31:41.050Z,4.90
2022-10-20T06:36:43.480Z,5.57
2022-10-20T06:41:50.813Z,5.20
2022-10-20T06:46:55.525Z,5.22
2022-10-20T06:51:57.742Z,5.60
2022-10-20T06:56:59.952Z,4.82
2022-10-20T07:02:02.181Z,5.75
2022-10-20T07:07:03.918Z,5.47
2022-10-20T07:12:05.788Z,6.38
2022-10-20T07:17:07.712Z,7.00
2022-10-20T07:22:09.436Z,9.13
2022-10-20T07:27:11.081Z,7.05
2022-10-20T07:32:12.891Z,9.27
2022-10-20T07:37:14.607Z,8.55
2022-10-20T07:42:16.309Z,8.60
2022-10-20T07:47:18.007Z,10.43
2022-10-20T07:52:19.887Z,10.82
2022-10-20T07:57:21.705Z,9.63
2022-10-20T08:02:23.713Z,11.27
2022-10-20T08:07:25.508Z,10.50
2022-10-20T08:12:27.321Z,10.43
2022-10-20T08:17:29.112Z,9.63
2022-10-20T08:22:30.927Z,9.85
2022-10-20T08:27:32.662Z,9.52
2022-10-20T08:32:34.549Z,9.25
2022-10-20T08:37:37.190Z,7.97
2022-10-20T08:42:42.243Z,7.65
2022-10-20T08:47:46.144Z,7.65
2022-10-20T08:52:54.760Z,7.53
2022-10-20T08:58:03.851Z,5.88
2022-10-20T09:08:39.503Z,4.80
2022-10-20T09:13:44.442Z,4.60
2022-10-20T09:18:50.965Z,4.15
2022-10-20T09:24:03.438Z,4.57
2022-10-20T09:29:15.336Z,4.18
2022-10-20T09:34:23.297Z,3.65
2022-10-20T09:39:36.241Z,3.97
2022-10-20T09:44:47.010Z,3.85
2022-10-20T09:49:59.927Z,3.85
2022-10-20T09:55:30.755Z,4.00
2022-10-20T10:00:50.546Z,4.07
2022-10-20T10:06:01.168Z,3.60
2022-10-20T10:11:16.426Z,3.80
2022-10-20T10:16:22.048Z,3.63
2022-10-20T10:21:24.407Z,4.25
2022-10-20T10:26:47.957Z,3.85
2022-10-20T10:32:26.060Z,3.50
2022-10-20T10:37:33.856Z,3.40
2022-10-20T10:43:01.941Z,3.42
2022-10-20T10:48:12.736Z,3.47
2022-10-20T10:53:59.815Z,3.92
2022-10-20T10:59:27.945Z,3.63
2022-10-20T11:04:43.506Z,3.50
2022-10-20T11:10:51.022Z,3.80
2022-10-20T11:16:28.805Z,3.40
2022-10-20T11:22:17.024Z,3.20
2022-10-20T11:27:25.862Z,3.63
2022-10-20T11:37:50.822Z,3.40
2022-10-20T11:43:19.580Z,3.00
2022-10-20T11:48:38.861Z,3.47
2022-10-20T11:54:11.594Z,3.40
2022-10-20T11:59:53.006Z,2.90
2022-10-20T12:05:20.204Z,3.35
2022-10-20T12:10:49.955Z,3.30
2022-10-20T12:21:17.156Z,2.83
2022-10-20T12:26:30.291Z,3.58
2022-10-20T12:32:09.404Z,3.65
2022-10-20T12:37:19.947Z,3.97
2022-10-20T12:42:38.214Z,3.53
2022-10-20T12:47:52.123Z,3.60
2022-10-20T12:52:54.314Z,3.58
2022-10-20T12:58:19.047Z,3.50
2022-10-20T13:03:49.616Z,3.40
2022-10-20T13:09:07.188Z,3.85
2022-10-20T13:14:12.202Z,3.33
2022-10-20T13:19:31.500Z,3.10
2022-10-20T13:24:44.087Z,2.88
2022-10-20T13:29:48.538Z,2.80
2022-10-20T13:35:51.508Z,3.20
2022-10-20T13:41:48.030Z,3.22
2022-10-20T13:47:36.257Z,3.28
2022-10-20T13:52:46.438Z,3.47
2022-10-20T14:09:30.325Z,3.88
2022-10-20T14:20:30.094Z,3.95
2022-10-20T14:25:32.991Z,3.40
2022-10-20T14:30:38.734Z,3.70
2022-10-20T14:35:53.362Z,4.18
2022-10-20T14:41:06.036Z,2.95
2022-10-20T14:46:29.558Z,3.47
2022-10-20T14:57:35.281Z,2.97
2022-10-20T15:02:58.385Z,2.50
2022-10-20T15:14:01.205Z,2.60
2022-10-20T15:19:36.343Z,2.90
2022-10-20T15:24:42.794Z,2.90
2022-10-20T15:29:55.386Z,3.60
2022-10-20T15:34:57.050Z,3.20
2022-10-20T15:39:59.759Z,3.00
2022-10-20T15:45:01.595Z,2.97
2022-10-20T15:50:06.350Z,3.92
2022-10-20T16:00:48.213Z,3.15
2022-10-20T16:05:54.519Z,3.08
2022-10-20T16:11:08.901Z,3.88
2022-10-20T16:28:12.489Z,3.30
2022-10-20T16:33:42.829Z,3.60
2022-10-20T16:57:40.509Z,3.60
2022-10-20T17:03:02.859Z,4.63
2022-10-20T17:08:21.000Z,4.47
2022-10-20T17:13:24.551Z,4.15
2022-10-20T17:24:15.535Z,4.20
2022-10-20T17:29:18.581Z,4.40
2022-10-20T17:34:24.054Z,4.40
2022-10-20T17:39:28.896Z,4.45
2022-10-20T17:44:30.621Z,4.30
2022-10-20T17:49:32.399Z,4.13
2022-10-20T17:54:43.289Z,4.38
2022-10-20T17:59:52.885Z,4.40
2022-10-20T18:05:01.046Z,4.38
2022-10-20T18:10:10.817Z,4.13
2022-10-20T18:27:05.119Z,4.60
2022-10-20T18:32:15.609Z,4.03
2022-10-20T18:37:20.379Z,4.10
2022-10-20T18:42:22.301Z,4.35
2022-10-20T18:59:00.715Z,4.40
2022-10-20T19:04:10.297Z,3.88
2022-10-20T19:09:23.599Z,3.97
2022-10-20T19:14:31.382Z,3.97
2022-10-20T19:19:38.268Z,3.75
2022-10-20T19:24:47.698Z,4.22
2022-10-20T19:30:07.761Z,4.25
2022-10-20T19:46:22.129Z,3.95
2022-10-20T19:57:15.610Z,3.80
2022-10-20T20:02:32.033Z,3.45
2022-10-20T20:07:38.815Z,3.33
2022-10-20T20:13:01.959Z,3.38
2022-10-20T20:24:27.012Z,3.35
2022-10-20T20:35:16.495Z,3.92
2022-10-20T20:41:22.463Z,3.22
2022-10-20T20:46:31.208Z,3.88
2022-10-20T20:51:34.069Z,3.42
2022-10-20T20:56:40.122Z,3.40
2022-10-20T21:07:08.082Z,3.65
2022-10-20T21:18:01.779Z,3.75
2022-10-20T21:23:12.539Z,3.35
2022-10-20T21:28:25.556Z,3.40
2022-10-20T21:55:37.735Z,3.67
2022-10-20T22:00:42.084Z,3.75
2022-10-20T22:05:44.010Z,3.15
2022-10-20T22:16:44.989Z,3.30
2022-10-20T22:27:44.277Z,3.75
2022-10-20T22:33:14.497Z,3.78
2022-10-20T22:38:16.449Z,4.00
2022-10-20T22:43:25.328Z,3.60
2022-10-20T23:00:22.272Z,3.38
2022-10-20T23:05:34.406Z,3.70
2022-10-20T23:16:13.494Z,3.60
2022-10-20T23:21:19.213Z,3.35
2022-10-20T23:26:35.756Z,3.55
2022-10-20T23:31:57.139Z,4.50
2022-10-20T23:37:18.952Z,3.35
2022-10-20T23:42:23.442Z,3.50
2022-10-20T23:47:28.338Z,3.67
